Time;durP1;ratioP1;P1;durP2;ratioP2;P2;SDS_P1;SDS_P2;PMS_P1;PMS_P2;Temp;Humidity;BMP_temperature;BMP_pressure;BME280_temperature;BME280_humidity;BME280_pressure;Samples;Min_cycle;Max_cycle;Signal;HPM_P1;HPM_P2
2023/01/26 00:00:14;;;;;;;0.20;0.20;;;;;;;;;;4929859;28;20187;-74
2023/01/26 00:02:40;;;;;;;0.10;0.10;;;;;;;;;;4931224;28;20602;-72
2023/01/26 00:05:06;;;;;;;0.20;0.20;;;;;;;;;;4933049;28;20185;-73
2023/01/26 00:07:33;;;;;;;0.20;0.20;;;;;;;;;;4931502;28;20788;-73
2023/01/26 00:10:00;;;;;;;0.20;0.20;;;;;;;;;;4930675;28;20540;-72
2023/01/26 00:12:26;;;;;;;0.13;0.13;;;;;;;;;;4932134;28;20055;-73
2023/01/26 00:14:52;;;;;;;0.20;0.20;;;;;;;;;;4930742;28;20051;-72
2023/01/26 00:17:24;;;;;;;0.13;0.13;;;;;;;;;;4928678;28;20081;-73
2023/01/26 00:19:51;;;;;;;0.10;0.10;;;;;;;;;;4922993;28;20660;-72
2023/01/26 00:22:17;;;;;;;0.10;0.10;;;;;;;;;;4930192;28;20035;-73
2023/01/26 00:24:43;;;;;;;0.10;0.10;;;;;;;;;;4931267;28;20043;-73
2023/01/26 00:27:09;;;;;;;0.10;0.10;;;;;;;;;;4929695;28;20491;-74
2023/01/26 00:29:35;;;;;;;0.20;0.20;;;;;;;;;;4928069;28;20616;-74
2023/01/26 00:32:02;;;;;;;0.20;0.20;;;;;;;;;;4929045;28;20566;-73
2023/01/26 00:34:28;;;;;;;0.10;0.10;;;;;;;;;;4928402;28;20046;-74
2023/01/26 00:36:54;;;;;;;0.20;0.20;;;;;;;;;;4918963;28;20062;-74
2023/01/26 00:39:20;;;;;;;0.10;0.10;;;;;;;;;;4921870;28;20118;-72
2023/01/26 00:44:31;;;;;;;0.20;0.20;;;;;;;;;;4918997;28;20054;-72
2023/01/26 00:46:57;;;;;;;0.20;0.20;;;;;;;;;;4929637;28;20709;-73
2023/01/26 00:49:23;;;;;;;0.20;0.20;;;;;;;;;;4926880;28;20074;-73
2023/01/26 00:51:49;;;;;;;0.10;0.10;;;;;;;;;;4929889;28;20078;-73
2023/01/26 00:54:15;;;;;;;0.10;0.10;;;;;;;;;;4929714;28;20193;-73
2023/01/26 00:56:41;;;;;;;0.20;0.20;;;;;;;;;;4932492;28;20933;-73
2023/01/26 00:59:07;;;;;;;0.13;0.13;;;;;;;;;;4930891;28;20318;-73
2023/01/26 01:01:34;;;;;;;0.10;0.10;;;;;;;;;;4931155;28;20424;-72
2023/01/26 01:04:00;;;;;;;0.15;0.15;;;;;;;;;;4926321;28;20499;-73
2023/01/26 01:06:26;;;;;;;0.20;0.20;;;;;;;;;;4931986;28;20677;-73
2023/01/26 01:09:01;;;;;;;0.13;0.13;;;;;;;;;;4931683;28;20043;-72
2023/01/26 01:11:27;;;;;;;0.20;0.20;;;;;;;;;;4928504;28;20047;-72
2023/01/26 01:13:53;;;;;;;0.20;0.20;;;;;;;;;;4929765;28;20043;-72
2023/01/26 01:16:22;;;;;;;0.20;0.20;;;;;;;;;;4933762;28;20094;-73
2023/01/26 01:18:53;;;;;;;0.20;0.20;;;;;;;;;;4930932;28;20221;-73
2023/01/26 01:21:19;;;;;;;0.20;0.20;;;;;;;;;;4929608;28;20061;-73
2023/01/26 01:23:45;;;;;;;0.10;0.10;;;;;;;;;;4930879;28;20129;-73
2023/01/26 01:26:15;;;;;;;0.20;0.20;;;;;;;;;;4927248;28;20078;-71
2023/01/26 01:28:41;;;;;;;0.20;0.20;;;;;;;;;;4914849;28;20110;-73
2023/01/26 01:31:08;;;;;;;0.10;0.10;;;;;;;;;;4927230;28;20050;-73
2023/01/26 01:33:34;;;;;;;0.20;0.20;;;;;;;;;;4929854;28;20055;-73
2023/01/26 01:36:05;;;;;;;0.20;0.20;;;;;;;;;;4930735;28;20105;-72
2023/01/26 01:38:32;;;;;;;0.13;0.13;;;;;;;;;;4935700;28;20053;-72
2023/01/26 01:40:58;;;;;;;0.20;0.20;;;;;;;;;;4933782;28;20050;-72
2023/01/26 01:43:24;;;;;;;0.20;0.20;;;;;;;;;;4931023;28;20069;-72
2023/01/26 01:45:51;;;;;;;0.10;0.10;;;;;;;;;;4934005;28;20058;-72
2023/01/26 01:48:36;;;;;;;0.17;0.17;;;;;;;;;;4931926;28;20046;-72
2023/01/26 01:51:13;;;;;;;0.10;0.10;;;;;;;;;;4933318;28;20420;-72
2023/01/26 01:53:40;;;;;;;0.10;0.10;;;;;;;;;;4931644;28;20061;-72
2023/01/26 01:56:09;;;;;;;0.20;0.20;;;;;;;;;;4919710;28;20396;-74
2023/01/26 01:58:37;;;;;;;0.10;0.10;;;;;;;;;;4925405;28;20051;-71
2023/01/26 02:01:03;;;;;;;0.20;0.20;;;;;;;;;;4932595;28;21016;-73
2023/01/26 02:03:30;;;;;;;0.10;0.10;;;;;;;;;;4930323;28;20153;-72
2023/01/26 02:05:59;;;;;;;0.20;0.20;;;;;;;;;;4931489;28;20256;-72
2023/01/26 02:08:27;;;;;;;0.20;0.20;;;;;;;;;;4932743;28;20053;-72
2023/01/26 02:10:55;;;;;;;0.20;0.20;;;;;;;;;;4930745;28;20558;-73
2023/01/26 02:13:22;;;;;;;0.17;0.17;;;;;;;;;;4932486;28;20109;-73
2023/01/26 02:15:48;;;;;;;0.20;0.20;;;;;;;;;;4932982;28;20054;-72
2023/01/26 02:18:15;;;;;;;0.10;0.10;;;;;;;;;;4929610;28;20187;-73
2023/01/26 02:20:44;;;;;;;0.20;0.20;;;;;;;;;;4933195;28;20579;-73
2023/01/26 02:23:10;;;;;;;0.10;0.10;;;;;;;;;;4932477;28;20117;-73
2023/01/26 02:25:39;;;;;;;0.10;0.10;;;;;;;;;;4933315;28;20049;-73
2023/01/26 02:28:05;;;;;;;0.20;0.20;;;;;;;;;;4929556;28;20055;-72
2023/01/26 02:30:31;;;;;;;0.20;0.20;;;;;;;;;;4928416;28;20553;-72
2023/01/26 02:32:58;;;;;;;0.20;0.20;;;;;;;;;;4928552;28;20057;-72
2023/01/26 02:35:24;;;;;;;0.20;0.20;;;;;;;;;;4926187;28;20682;-73
2023/01/26 02:37:50;;;;;;;0.13;0.13;;;;;;;;;;4933041;28;20047;-73
2023/01/26 02:40:24;;;;;;;0.20;0.20;;;;;;;;;;4927826;28;20881;-73
2023/01/26 02:42:53;;;;;;;0.20;0.20;;;;;;;;;;4926964;28;20831;-73
2023/01/26 02:45:20;;;;;;;0.20;0.20;;;;;;;;;;4928491;28;20576;-72
2023/01/26 02:47:46;;;;;;;0.10;0.10;;;;;;;;;;4930914;28;20239;-72
2023/01/26 02:50:12;;;;;;;0.10;0.10;;;;;;;;;;4931804;28;20051;-74
2023/01/26 02:52:39;;;;;;;0.10;0.10;;;;;;;;;;4930850;28;20046;-74
2023/01/26 02:57:51;;;;;;;0.20;0.20;;;;;;;;;;4932067;28;20440;-73
2023/01/26 03:00:21;;;;;;;0.10;0.10;;;;;;;;;;4931921;28;20546;-73
2023/01/26 03:02:48;;;;;;;0.10;0.10;;;;;;;;;;4929267;28;20046;-73
2023/01/26 03:05:14;;;;;;;0.20;0.20;;;;;;;;;;4932734;28;20516;-72
2023/01/26 03:07:40;;;;;;;0.17;0.17;;;;;;;;;;4931596;28;20391;-74
2023/01/26 03:10:07;;;;;;;0.20;0.20;;;;;;;;;;4931886;28;20133;-73
2023/01/26 03:12:33;;;;;;;0.20;0.20;;;;;;;;;;4931939;28;20251;-74
2023/01/26 03:17:44;;;;;;;0.10;0.10;;;;;;;;;;4930813;28;20471;-73
2023/01/26 03:28:37;;;;;;;0.15;0.15;;;;;;;;;;4932508;28;20046;-74
2023/01/26 03:31:05;;;;;;;0.20;0.20;;;;;;;;;;4930746;28;20423;-74
2023/01/26 03:33:31;;;;;;;0.20;0.20;;;;;;;;;;4933434;28;20497;-74
2023/01/26 03:35:57;;;;;;;0.20;0.20;;;;;;;;;;4932663;28;20039;-73
2023/01/26 03:38:23;;;;;;;0.15;0.15;;;;;;;;;;4930937;28;20423;-73
2023/01/26 03:57:18;;;;;;;0.20;0.20;;;;;;;;;;4925909;28;20065;-73
2023/01/26 03:59:45;;;;;;;0.10;0.10;;;;;;;;;;4928483;28;20149;-73
2023/01/26 04:10:26;;;;;;;0.20;0.20;;;;;;;;;;4922083;28;20046;-73
2023/01/26 04:23:55;;;;;;;0.20;0.20;;;;;;;;;;4931818;28;20109;-73
2023/01/26 04:26:21;;;;;;;0.13;0.13;;;;;;;;;;4932006;28;20046;-73
2023/01/26 04:28:47;;;;;;;0.20;0.20;;;;;;;;;;4932705;28;20133;-74
2023/01/26 04:31:15;;;;;;;0.10;0.10;;;;;;;;;;4931379;28;20055;-73
2023/01/26 04:33:41;;;;;;;0.20;0.20;;;;;;;;;;4928968;28;20046;-73
2023/01/26 04:36:07;;;;;;;0.10;0.10;;;;;;;;;;4931387;28;20062;-73
2023/01/26 04:38:34;;;;;;;0.10;0.10;;;;;;;;;;4933149;28;20134;-73
2023/01/26 04:41:03;;;;;;;0.20;0.20;;;;;;;;;;4930585;28;20058;-73
2023/01/26 04:43:29;;;;;;;0.20;0.20;;;;;;;;;;4931651;28;20452;-73
2023/01/26 04:45:58;;;;;;;0.20;0.20;;;;;;;;;;4934378;28;20104;-73
2023/01/26 04:48:25;;;;;;;0.10;0.10;;;;;;;;;;4931525;28;20050;-74
2023/01/26 04:50:59;;;;;;;0.10;0.10;;;;;;;;;;4932717;28;20046;-73
2023/01/26 04:53:25;;;;;;;0.10;0.10;;;;;;;;;;4935235;28;20055;-73
2023/01/26 04:55:51;;;;;;;0.10;0.10;;;;;;;;;;4931662;28;20051;-73
2023/01/26 04:58:18;;;;;;;0.20;0.20;;;;;;;;;;4929012;28;20134;-73
2023/01/26 05:00:44;;;;;;;0.10;0.10;;;;;;;;;;4930711;28;20046;-74
2023/01/26 05:03:10;;;;;;;0.10;0.10;;;;;;;;;;4929620;28;20491;-72
2023/01/26 05:05:39;;;;;;;0.20;0.20;;;;;;;;;;4929321;28;20117;-73
2023/01/26 05:08:06;;;;;;;0.10;0.10;;;;;;;;;;4926436;28;20427;-73
2023/01/26 05:10:32;;;;;;;0.10;0.10;;;;;;;;;;4927098;28;20057;-73
2023/01/26 05:12:58;;;;;;;0.10;0.10;;;;;;;;;;4930442;28;20558;-73
2023/01/26 05:15:25;;;;;;;0.10;0.10;;;;;;;;;;4932659;28;20499;-73
2023/01/26 05:17:51;;;;;;;0.10;0.10;;;;;;;;;;4932667;28;20128;-72
2023/01/26 05:20:17;;;;;;;0.10;0.10;;;;;;;;;;4933639;28;20063;-73
2023/01/26 05:22:46;;;;;;;0.10;0.10;;;;;;;;;;4934833;28;20158;-73
2023/01/26 05:25:12;;;;;;;0.10;0.10;;;;;;;;;;4935747;28;20055;-73
2023/01/26 05:27:38;;;;;;;0.20;0.20;;;;;;;;;;4935945;28;20051;-73
2023/01/26 05:30:04;;;;;;;0.20;0.20;;;;;;;;;;4933640;28;20826;-73
2023/01/26 05:32:30;;;;;;;0.20;0.20;;;;;;;;;;4932581;28;20444;-73
2023/01/26 05:34:57;;;;;;;0.20;0.20;;;;;;;;;;4932256;28;20050;-73
2023/01/26 05:37:26;;;;;;;0.10;0.10;;;;;;;;;;4934127;28;20952;-73
2023/01/26 05:39:53;;;;;;;0.10;0.10;;;;;;;;;;4934026;28;20086;-73
2023/01/26 05:42:19;;;;;;;0.17;0.17;;;;;;;;;;4933927;28;20050;-73
2023/01/26 05:44:45;;;;;;;0.10;0.10;;;;;;;;;;4928000;28;20047;-73
2023/01/26 05:47:11;;;;;;;0.10;0.10;;;;;;;;;;4931135;28;20065;-74
2023/01/26 05:49:40;;;;;;;0.20;0.20;;;;;;;;;;4930428;28;20046;-73
2023/01/26 05:52:10;;;;;;;0.20;0.20;;;;;;;;;;4930761;28;20062;-72
2023/01/26 05:54:36;;;;;;;0.10;0.10;;;;;;;;;;4926190;28;20239;-73
2023/01/26 05:57:02;;;;;;;0.20;0.20;;;;;;;;;;4925005;28;20126;-72
2023/01/26 05:59:28;;;;;;;0.20;0.20;;;;;;;;;;4932882;28;20062;-72
2023/01/26 06:01:55;;;;;;;0.20;0.20;;;;;;;;;;4932703;28;20589;-73
2023/01/26 06:04:21;;;;;;;0.20;0.20;;;;;;;;;;4928708;28;20055;-73
2023/01/26 06:06:47;;;;;;;0.10;0.10;;;;;;;;;;4927531;28;20407;-72
2023/01/26 06:09:13;;;;;;;0.10;0.10;;;;;;;;;;4922788;28;20407;-72
2023/01/26 06:11:39;;;;;;;0.20;0.20;;;;;;;;;;4925357;28;20047;-73
2023/01/26 06:14:05;;;;;;;0.20;0.20;;;;;;;;;;4926919;28;20057;-72
2023/01/26 06:16:31;;;;;;;0.10;0.10;;;;;;;;;;4932936;28;20047;-72
2023/01/26 06:18:57;;;;;;;0.10;0.10;;;;;;;;;;4930013;28;20463;-75
2023/01/26 06:21:23;;;;;;;0.20;0.20;;;;;;;;;;4932476;28;20051;-73
2023/01/26 06:23:49;;;;;;;0.10;0.10;;;;;;;;;;4934657;28;20050;-73
2023/01/26 06:26:15;;;;;;;0.10;0.10;;;;;;;;;;4932613;28;20098;-72
2023/01/26 06:28:41;;;;;;;0.10;0.10;;;;;;;;;;4932254;28;20047;-72
2023/01/26 06:31:09;;;;;;;0.13;0.13;;;;;;;;;;4930232;28;20058;-74
2023/01/26 06:33:36;;;;;;;0.10;0.10;;;;;;;;;;4930039;28;20057;-72
2023/01/26 06:36:03;;;;;;;0.10;0.10;;;;;;;;;;4930974;28;20443;-71
2023/01/26 06:38:30;;;;;;;0.10;0.10;;;;;;;;;;4932433;28;20043;-72
2023/01/26 06:40:59;;;;;;;0.10;0.10;;;;;;;;;;4929759;28;20495;-72
2023/01/26 06:43:25;;;;;;;0.20;0.20;;;;;;;;;;4930230;28;20066;-73
2023/01/26 06:45:51;;;;;;;0.10;0.10;;;;;;;;;;4928373;28;20506;-71
2023/01/26 06:48:17;;;;;;;0.10;0.10;;;;;;;;;;4932272;28;20578;-72
2023/01/26 06:50:44;;;;;;;0.10;0.10;;;;;;;;;;4931535;28;20053;-72
2023/01/26 06:53:30;;;;;;;0.10;0.10;;;;;;;;;;4933217;28;20074;-74
2023/01/26 06:55:56;;;;;;;0.10;0.10;;;;;;;;;;4929026;28;20108;-75
2023/01/26 06:58:25;;;;;;;0.10;0.10;;;;;;;;;;4932322;28;20078;-73
2023/01/26 07:00:51;;;;;;;0.20;0.20;;;;;;;;;;4930507;28;20526;-73
2023/01/26 07:03:17;;;;;;;0.20;0.20;;;;;;;;;;4928791;28;20074;-74
2023/01/26 07:05:43;;;;;;;0.13;0.13;;;;;;;;;;4932769;28;20624;-71
2023/01/26 07:08:09;;;;;;;0.10;0.10;;;;;;;;;;4927551;28;20173;-73
2023/01/26 07:10:36;;;;;;;0.10;0.10;;;;;;;;;;4931038;28;20405;-72
2023/01/26 07:13:03;;;;;;;0.10;0.10;;;;;;;;;;4930585;28;20061;-73
2023/01/26 07:15:29;;;;;;;0.10;0.10;;;;;;;;;;4929626;28;20047;-74
2023/01/26 07:17:56;;;;;;;0.10;0.10;;;;;;;;;;4929154;28;20617;-73
2023/01/26 07:20:22;;;;;;;0.10;0.10;;;;;;;;;;4930232;28;20137;-73
2023/01/26 07:22:48;;;;;;;0.10;0.10;;;;;;;;;;4930817;28;20432;-74
2023/01/26 07:25:15;;;;;;;0.10;0.10;;;;;;;;;;4928670;28;20054;-73
2023/01/26 07:27:41;;;;;;;0.10;0.10;;;;;;;;;;4932143;28;20105;-73
2023/01/26 07:30:07;;;;;;;0.15;0.15;;;;;;;;;;4928899;28;20764;-73
2023/01/26 07:32:34;;;;;;;0.10;0.10;;;;;;;;;;4927963;28;20065;-73
2023/01/26 07:35:00;;;;;;;0.10;0.10;;;;;;;;;;4925109;28;20054;-73
2023/01/26 07:37:29;;;;;;;0.10;0.10;;;;;;;;;;4932688;28;20165;-73
2023/01/26 07:39:55;;;;;;;0.10;0.10;;;;;;;;;;4933131;28;20150;-74
2023/01/26 07:42:21;;;;;;;0.10;0.10;;;;;;;;;;4930788;28;20195;-74
2023/01/26 07:44:47;;;;;;;0.10;0.10;;;;;;;;;;4924381;28;20094;-72
2023/01/26 07:47:14;;;;;;;0.10;0.10;;;;;;;;;;4927727;28;20078;-72
2023/01/26 07:49:46;;;;;;;0.20;0.20;;;;;;;;;;4930810;28;20251;-73
2023/01/26 07:52:12;;;;;;;0.20;0.20;;;;;;;;;;4932927;28;20057;-72
2023/01/26 07:54:38;;;;;;;0.20;0.20;;;;;;;;;;4931235;28;20864;-72
2023/01/26 07:57:07;;;;;;;0.10;0.10;;;;;;;;;;4927565;28;20922;-72
2023/01/26 07:59:35;;;;;;;0.10;0.10;;;;;;;;;;4931541;28;20525;-72
2023/01/26 08:02:01;;;;;;;0.10;0.10;;;;;;;;;;4929313;28;20090;-72
2023/01/26 08:04:28;;;;;;;0.10;0.10;;;;;;;;;;4928184;28;20438;-73
2023/01/26 08:06:54;;;;;;;0.10;0.10;;;;;;;;;;4926456;28;20497;-73
2023/01/26 08:09:20;;;;;;;0.10;0.10;;;;;;;;;;4928483;28;20208;-73
2023/01/26 08:11:46;;;;;;;0.10;0.10;;;;;;;;;;4931368;28;20051;-74
2023/01/26 08:14:12;;;;;;;0.10;0.10;;;;;;;;;;4930920;28;20137;-74
2023/01/26 08:16:38;;;;;;;0.10;0.10;;;;;;;;;;4929459;28;20157;-73
2023/01/26 08:19:04;;;;;;;0.10;0.10;;;;;;;;;;4930625;28;20063;-72
2023/01/26 08:21:30;;;;;;;0.10;0.10;;;;;;;;;;4930303;28;20134;-72
2023/01/26 08:24:00;;;;;;;0.17;0.17;;;;;;;;;;4928610;28;20173;-72
2023/01/26 08:26:27;;;;;;;0.20;0.20;;;;;;;;;;4931288;28;20058;-72
2023/01/26 08:28:53;;;;;;;0.20;0.20;;;;;;;;;;4926110;28;20590;-72
2023/01/26 08:31:20;;;;;;;0.10;0.10;;;;;;;;;;4931689;28;20050;-73
2023/01/26 08:33:49;;;;;;;0.10;0.10;;;;;;;;;;4928355;28;20050;-72
2023/01/26 08:36:15;;;;;;;0.17;0.17;;;;;;;;;;4933507;28;20549;-72
2023/01/26 08:38:42;;;;;;;0.15;0.15;;;;;;;;;;4926847;28;20110;-72
2023/01/26 08:41:08;;;;;;;0.17;0.17;;;;;;;;;;4932987;28;20050;-73
2023/01/26 08:43:35;;;;;;;0.10;0.10;;;;;;;;;;4932092;28;20054;-73
2023/01/26 08:46:01;;;;;;;0.10;0.10;;;;;;;;;;4928651;28;20093;-73
2023/01/26 08:48:29;;;;;;;0.15;0.15;;;;;;;;;;4927813;28;20402;-74
2023/01/26 08:50:56;;;;;;;0.10;0.10;;;;;;;;;;4921717;28;20047;-73
2023/01/26 08:53:22;;;;;;;0.10;0.10;;;;;;;;;;4919531;28;20088;-73
2023/01/26 08:55:49;;;;;;;0.10;0.10;;;;;;;;;;4921371;28;20047;-73
2023/01/26 08:58:15;;;;;;;0.20;0.20;;;;;;;;;;4921055;28;20045;-73
2023/01/26 09:00:41;;;;;;;0.10;0.10;;;;;;;;;;4921871;28;20729;-73
2023/01/26 09:03:07;;;;;;;0.10;0.10;;;;;;;;;;4925808;28;20077;-69
2023/01/26 09:05:35;;;;;;;0.10;0.10;;;;;;;;;;4925776;28;20042;-72
2023/01/26 09:08:01;;;;;;;0.10;0.10;;;;;;;;;;4919156;28;20047;-72
2023/01/26 09:10:27;;;;;;;0.10;0.10;;;;;;;;;;4930917;28;20145;-73
2023/01/26 09:12:53;;;;;;;0.13;0.13;;;;;;;;;;4926764;28;20838;-74
2023/01/26 09:15:19;;;;;;;0.10;0.10;;;;;;;;;;4922818;28;20569;-74
2023/01/26 09:17:47;;;;;;;0.10;0.10;;;;;;;;;;4921946;28;20583;-73
2023/01/26 09:20:14;;;;;;;0.10;0.10;;;;;;;;;;4920570;28;20055;-74
2023/01/26 09:22:41;;;;;;;0.10;0.10;;;;;;;;;;4921579;28;20126;-72
2023/01/26 09:25:07;;;;;;;0.10;0.10;;;;;;;;;;4919467;28;20507;-73
2023/01/26 09:27:34;;;;;;;0.10;0.10;;;;;;;;;;4922498;28;20558;-77
2023/01/26 09:30:00;;;;;;;0.10;0.10;;;;;;;;;;4919617;28;20046;-76
2023/01/26 09:32:26;;;;;;;0.10;0.10;;;;;;;;;;4917112;28;20419;-74
2023/01/26 09:34:52;;;;;;;0.10;0.10;;;;;;;;;;4919124;28;20296;-73
2023/01/26 09:37:18;;;;;;;0.10;0.10;;;;;;;;;;4921846;28;20047;-77
2023/01/26 09:39:44;;;;;;;0.10;0.10;;;;;;;;;;4922713;28;20555;-73
2023/01/26 09:42:21;;;;;;;0.10;0.10;;;;;;;;;;4919990;28;20197;-74
2023/01/26 09:44:50;;;;;;;0.10;0.10;;;;;;;;;;4918694;28;20039;-73
2023/01/26 09:47:25;;;;;;;0.10;0.10;;;;;;;;;;4918981;28;20071;-74
2023/01/26 09:49:58;;;;;;;0.10;0.10;;;;;;;;;;4918632;28;20053;-74
2023/01/26 09:52:30;;;;;;;0.15;0.15;;;;;;;;;;4922303;28;20047;-74
2023/01/26 09:55:04;;;;;;;0.10;0.10;;;;;;;;;;4926784;28;20428;-77
2023/01/26 09:57:30;;;;;;;0.10;0.10;;;;;;;;;;4927854;28;20054;-75
2023/01/26 10:00:00;;;;;;;0.10;0.10;;;;;;;;;;4932934;28;20038;-74
2023/01/26 10:02:38;;;;;;;0.13;0.13;;;;;;;;;;4931396;28;20058;-74
2023/01/26 10:05:07;;;;;;;0.10;0.10;;;;;;;;;;4929363;28;20055;-73
2023/01/26 10:07:33;;;;;;;0.10;0.10;;;;;;;;;;4932900;28;20509;-75
2023/01/26 10:09:59;;;;;;;0.10;0.10;;;;;;;;;;4933199;28;20034;-80
2023/01/26 10:12:30;;;;;;;0.08;0.08;;;;;;;;;;4929548;28;20556;-77
2023/01/26 10:15:07;;;;;;;0.10;0.10;;;;;;;;;;4932414;28;20145;-75
2023/01/26 10:17:35;;;;;;;0.10;0.10;;;;;;;;;;4931394;28;20117;-74
2023/01/26 10:20:24;;;;;;;0.10;0.10;;;;;;;;;;4931956;28;20051;-74
2023/01/26 10:22:52;;;;;;;0.10;0.10;;;;;;;;;;4913885;28;20055;-75
2023/01/26 10:25:20;;;;;;;0.10;0.10;;;;;;;;;;4927056;28;20149;-75
2023/01/26 10:27:46;;;;;;;0.10;0.10;;;;;;;;;;4930952;28;20526;-75
2023/01/26 10:30:13;;;;;;;0.10;0.10;;;;;;;;;;4933805;28;20239;-75
2023/01/26 10:32:41;;;;;;;0.10;0.10;;;;;;;;;;4934041;28;20054;-74
2023/01/26 10:35:18;;;;;;;0.10;0.10;;;;;;;;;;4932691;28;20383;-76
2023/01/26 10:37:45;;;;;;;0.10;0.10;;;;;;;;;;4934079;28;20055;-76
2023/01/26 10:40:11;;;;;;;0.10;0.10;;;;;;;;;;4932073;28;20527;-75
2023/01/26 10:42:37;;;;;;;0.10;0.10;;;;;;;;;;4932022;28;20038;-75
2023/01/26 10:45:05;;;;;;;0.10;0.10;;;;;;;;;;4929346;28;20625;-75
2023/01/26 10:47:32;;;;;;;0.10;0.10;;;;;;;;;;4921959;28;20462;-74
2023/01/26 10:50:16;;;;;;;0.10;0.10;;;;;;;;;;4924193;28;20042;-75
2023/01/26 10:52:56;;;;;;;0.10;0.10;;;;;;;;;;4926351;28;20050;-74
2023/01/26 10:55:22;;;;;;;0.10;0.10;;;;;;;;;;4924717;28;20054;-74
2023/01/26 10:57:49;;;;;;;0.13;0.13;;;;;;;;;;4926603;28;20915;-74
2023/01/26 11:00:18;;;;;;;0.10;0.10;;;;;;;;;;4924456;28;20573;-75
2023/01/26 11:02:49;;;;;;;0.10;0.10;;;;;;;;;;4925413;28;20498;-75
2023/01/26 11:05:19;;;;;;;0.10;0.10;;;;;;;;;;4910857;28;20061;-74
2023/01/26 11:07:46;;;;;;;0.10;0.10;;;;;;;;;;4921309;28;20050;-74
2023/01/26 11:10:20;;;;;;;0.10;0.10;;;;;;;;;;4922084;28;20422;-75
2023/01/26 11:12:46;;;;;;;0.10;0.10;;;;;;;;;;4923610;28;20050;-75
2023/01/26 11:15:17;;;;;;;0.10;0.10;;;;;;;;;;4920588;28;20584;-75
2023/01/26 11:18:00;;;;;;;0.10;0.10;;;;;;;;;;4924452;28;20667;-75
2023/01/26 11:20:30;;;;;;;0.10;0.10;;;;;;;;;;4922974;28;20070;-75
2023/01/26 11:22:59;;;;;;;0.10;0.10;;;;;;;;;;4927274;28;20207;-75
2023/01/26 11:25:25;;;;;;;0.10;0.10;;;;;;;;;;4918205;28;20097;-76
2023/01/26 11:28:10;;;;;;;0.68;0.68;;;;;;;;;;4921214;28;20349;-76
2023/01/26 11:30:51;;;;;;;0.10;0.10;;;;;;;;;;4911212;28;20169;-76
2023/01/26 11:33:17;;;;;;;0.20;0.20;;;;;;;;;;4921291;28;20600;-76
2023/01/26 11:36:02;;;;;;;0.10;0.10;;;;;;;;;;4933083;28;20047;-76
2023/01/26 11:38:31;;;;;;;0.10;0.10;;;;;;;;;;4927891;28;20197;-76
2023/01/26 11:41:06;;;;;;;0.10;0.10;;;;;;;;;;4928794;28;20051;-76
2023/01/26 11:43:32;;;;;;;0.10;0.10;;;;;;;;;;4929632;28;20089;-75
2023/01/26 11:46:17;;;;;;;0.10;0.10;;;;;;;;;;4922356;28;20594;-75
2023/01/26 11:49:02;;;;;;;0.20;0.20;;;;;;;;;;4921029;28;20138;-77
2023/01/26 11:51:48;;;;;;;0.10;0.10;;;;;;;;;;4918416;28;20097;-75
2023/01/26 11:54:17;;;;;;;0.10;0.10;;;;;;;;;;4916798;28;20150;-75
2023/01/26 11:56:46;;;;;;;0.10;0.10;;;;;;;;;;4911159;28;20516;-75
2023/01/26 11:59:24;;;;;;;0.10;0.10;;;;;;;;;;4919973;28;20491;-75
2023/01/26 12:01:54;;;;;;;0.10;0.10;;;;;;;;;;4921220;28;20046;-75
2023/01/26 12:04:21;;;;;;;0.10;0.10;;;;;;;;;;4929371;28;20084;-74
2023/01/26 12:06:52;;;;;;;0.10;0.10;;;;;;;;;;4923397;28;20267;-75
2023/01/26 12:09:18;;;;;;;;;;;;;;;;;;4922724;28;20053;-75
2023/01/26 12:11:49;;;;;;;0.20;0.20;;;;;;;;;;4922978;28;20441;-74
2023/01/26 12:14:36;;;;;;;0.10;0.10;;;;;;;;;;4920795;28;20125;-74
2023/01/26 12:17:02;;;;;;;0.10;0.10;;;;;;;;;;4925841;28;20775;-74
2023/01/26 12:19:28;;;;;;;0.10;0.10;;;;;;;;;;4924559;28;20043;-75
2023/01/26 12:21:57;;;;;;;0.10;0.10;;;;;;;;;;4923215;28;20756;-74
2023/01/26 12:24:35;;;;;;;0.10;0.10;;;;;;;;;;4929877;28;20337;-74
2023/01/26 12:27:03;;;;;;;0.10;0.10;;;;;;;;;;4926070;28;20584;-75
2023/01/26 12:29:41;;;;;;;0.10;0.10;;;;;;;;;;4930969;28;20521;-75
2023/01/26 12:32:12;;;;;;;0.10;0.10;;;;;;;;;;4927430;28;20141;-75
2023/01/26 12:34:38;;;;;;;0.05;0.05;;;;;;;;;;4931989;28;20210;-75
2023/01/26 12:37:04;;;;;;;0.10;0.10;;;;;;;;;;4929870;28;20137;-74
2023/01/26 12:39:34;;;;;;;0.10;0.10;;;;;;;;;;4926886;28;20047;-77
2023/01/26 12:42:09;;;;;;;0.10;0.10;;;;;;;;;;4929714;28;20104;-76
2023/01/26 12:44:35;;;;;;;0.10;0.10;;;;;;;;;;4931123;28;20089;-74
2023/01/26 12:47:14;;;;;;;0.10;0.10;;;;;;;;;;4929673;28;20370;-76
2023/01/26 12:49:59;;;;;;;0.05;0.05;;;;;;;;;;4925083;28;20493;-76
2023/01/26 12:52:31;;;;;;;0.10;0.10;;;;;;;;;;4936051;28;20500;-75
2023/01/26 12:55:01;;;;;;;0.10;0.10;;;;;;;;;;4930522;28;20362;-74
2023/01/26 12:57:37;;;;;;;0.10;0.10;;;;;;;;;;4929719;28;20611;-76
2023/01/26 13:00:23;;;;;;;0.10;0.10;;;;;;;;;;4923966;28;20158;-74
2023/01/26 13:02:56;;;;;;;0.10;0.10;;;;;;;;;;4925885;28;20507;-74
2023/01/26 13:05:27;;;;;;;0.10;0.10;;;;;;;;;;4927566;28;20174;-77
2023/01/26 13:07:53;;;;;;;0.10;0.10;;;;;;;;;;4928374;28;20053;-76
2023/01/26 13:10:21;;;;;;;0.10;0.10;;;;;;;;;;4928027;28;20443;-75
2023/01/26 13:12:58;;;;;;;0.10;0.10;;;;;;;;;;4929468;28;20050;-76
2023/01/26 13:15:26;;;;;;;0.10;0.10;;;;;;;;;;4928853;28;20058;-76
2023/01/26 13:17:59;;;;;;;0.10;0.10;;;;;;;;;;4925491;28;20507;-75
2023/01/26 13:20:27;;;;;;;0.10;0.10;;;;;;;;;;4929371;28;20057;-75
2023/01/26 13:22:54;;;;;;;0.10;0.10;;;;;;;;;;4929773;28;20049;-77
2023/01/26 13:25:32;;;;;;;0.10;0.10;;;;;;;;;;4931953;28;20051;-78
2023/01/26 13:27:58;;;;;;;0.10;0.10;;;;;;;;;;4922263;28;20546;-76
2023/01/26 13:30:30;;;;;;;0.10;0.10;;;;;;;;;;4926997;28;21102;-76
2023/01/26 13:33:12;;;;;;;0.10;0.10;;;;;;;;;;4929949;28;20411;-76
2023/01/26 13:35:38;;;;;;;0.10;0.10;;;;;;;;;;4931362;28;20050;-75
2023/01/26 13:38:17;;;;;;;0.13;0.13;;;;;;;;;;4932376;28;20134;-75
2023/01/26 13:40:45;;;;;;;0.10;0.10;;;;;;;;;;4934394;28;20216;-75
2023/01/26 13:43:14;;;;;;;0.10;0.10;;;;;;;;;;4927777;28;20050;-76
2023/01/26 13:45:53;;;;;;;0.10;0.10;;;;;;;;;;4932815;28;20047;-74
2023/01/26 13:48:31;;;;;;;0.10;0.10;;;;;;;;;;4931379;28;20241;-74
2023/01/26 13:51:00;;;;;;;0.10;0.10;;;;;;;;;;4930965;28;20039;-74
2023/01/26 13:53:40;;;;;;;0.10;0.10;;;;;;;;;;4931066;28;20057;-75
2023/01/26 13:56:19;;;;;;;0.10;0.10;;;;;;;;;;4923135;28;20530;-76
2023/01/26 13:58:45;;;;;;;0.10;0.10;;;;;;;;;;4934072;28;20066;-76
2023/01/26 14:01:12;;;;;;;0.10;0.10;;;;;;;;;;4931821;28;20051;-76
2023/01/26 14:03:38;;;;;;;0.10;0.10;;;;;;;;;;4931966;28;20102;-75
2023/01/26 14:06:08;;;;;;;0.10;0.10;;;;;;;;;;4932053;28;20078;-76
2023/01/26 14:08:38;;;;;;;0.10;0.10;;;;;;;;;;4930808;28;20519;-75
2023/01/26 14:11:14;;;;;;;0.10;0.10;;;;;;;;;;4929508;28;20702;-75
2023/01/26 14:13:40;;;;;;;0.10;0.10;;;;;;;;;;4932232;28;20047;-75
2023/01/26 14:16:07;;;;;;;0.20;0.20;;;;;;;;;;4933065;28;20078;-76
2023/01/26 14:18:33;;;;;;;0.10;0.10;;;;;;;;;;4929912;28;20059;-75
2023/01/26 14:21:02;;;;;;;0.20;0.20;;;;;;;;;;4934397;28;20509;-75
2023/01/26 14:23:29;;;;;;;0.10;0.10;;;;;;;;;;4933302;28;20497;-74
2023/01/26 14:26:03;;;;;;;0.10;0.10;;;;;;;;;;4930430;28;20085;-74
2023/01/26 14:28:41;;;;;;;0.10;0.10;;;;;;;;;;4931918;28;20132;-75
2023/01/26 14:31:14;;;;;;;0.10;0.10;;;;;;;;;;4934175;28;20384;-75
2023/01/26 14:33:41;;;;;;;0.10;0.10;;;;;;;;;;4927409;28;20042;-76
2023/01/26 14:36:13;;;;;;;0.10;0.10;;;;;;;;;;4931685;28;20046;-77
2023/01/26 14:38:41;;;;;;;0.10;0.10;;;;;;;;;;4929800;28;20620;-77
2023/01/26 14:41:15;;;;;;;0.10;0.10;;;;;;;;;;4934709;28;20454;-76
2023/01/26 14:43:41;;;;;;;0.10;0.10;;;;;;;;;;4933741;28;20157;-75
2023/01/26 14:46:11;;;;;;;0.10;0.10;;;;;;;;;;4931018;28;20051;-76
2023/01/26 14:48:42;;;;;;;0.10;0.10;;;;;;;;;;4932909;28;20046;-75
2023/01/26 14:51:15;;;;;;;0.10;0.10;;;;;;;;;;4929719;28;20077;-75
2023/01/26 14:53:47;;;;;;;0.10;0.10;;;;;;;;;;4928782;28;20329;-76
2023/01/26 14:56:17;;;;;;;0.10;0.10;;;;;;;;;;4933314;28;20403;-75
2023/01/26 14:58:43;;;;;;;0.10;0.10;;;;;;;;;;4928959;28;20038;-75
2023/01/26 15:01:19;;;;;;;0.10;0.10;;;;;;;;;;4932338;28;20050;-75
2023/01/26 15:03:45;;;;;;;0.10;0.10;;;;;;;;;;4934836;28;20063;-75
2023/01/26 15:06:19;;;;;;;0.10;0.10;;;;;;;;;;4929814;28;20144;-75
2023/01/26 15:08:53;;;;;;;0.10;0.10;;;;;;;;;;4916764;28;20427;-75
2023/01/26 15:14:35;;;;;;;0.10;0.10;;;;;;;;;;4927185;28;20449;-77
2023/01/26 15:17:01;;;;;;;0.10;0.10;;;;;;;;;;4931527;28;20077;-77
2023/01/26 15:19:33;;;;;;;0.10;0.10;;;;;;;;;;4930899;28;20062;-75
2023/01/26 15:21:59;;;;;;;0.10;0.10;;;;;;;;;;4928664;28;20093;-77
2023/01/26 15:24:25;;;;;;;0.10;0.10;;;;;;;;;;4930204;28;20073;-76
2023/01/26 15:26:51;;;;;;;0.10;0.10;;;;;;;;;;4929711;28;20104;-77
2023/01/26 15:29:25;;;;;;;0.10;0.10;;;;;;;;;;4931475;28;20507;-76
2023/01/26 15:31:52;;;;;;;0.10;0.10;;;;;;;;;;4930842;28;20893;-74
2023/01/26 15:34:48;;;;;;;0.10;0.10;;;;;;;;;;4929123;28;20047;-76
2023/01/26 15:37:28;;;;;;;0.10;0.10;;;;;;;;;;4914157;28;20062;-76
2023/01/26 15:39:57;;;;;;;0.15;0.15;;;;;;;;;;4924757;28;20071;-76
2023/01/26 15:42:29;;;;;;;0.15;0.15;;;;;;;;;;4928347;28;20043;-73
2023/01/26 15:44:56;;;;;;;0.10;0.10;;;;;;;;;;4928871;28;20070;-74
2023/01/26 15:47:22;;;;;;;0.10;0.10;;;;;;;;;;4932352;28;20051;-74